Poughquag, NY

3:30 PM EDT on July 30, 2015 (GMT -0400)
West Mountain | | Change Station
CLOSE
Current Station
Personal Weather Station
Location: Poughquag, NY
Elevation: 807 ft
Nearby Weather Stations

Elev 807 ft 41.62 °N, 73.64 °W | Updated 1 second ago

Overcast
Overcast
78.5 °F
Feels Like 82 °F
N
0.0
Wind Variable Wind from East
Gusts 2.0 mph

Today
High -- | Low -- °F
--% Chance of Precip.
Yesterday
High -- | Low -- °F
Precip. -- in
5:46 AM 8:14 PM
Waxing Gibbous, 99% visible
Pressure 29.80 in
Visibility 4.0 miles
Clouds Few 2800 ft
Mostly Cloudy 4100 ft
Mostly Cloudy 5500 ft
Heat Index 82 °F
Dew Point 76 °F
Humidity 93%
Rainfall 0.05 in
Snow Depth Not available.
UV 4 out of 12
Pollen 6.40 out of 12
Air Quality Not available.
Flu Activity Not available.
SPECI KPOU 301914Z 29007KT 4SM VCTS -RA FEW028 BKN041 BKN055 27/24 A2980 RMK AO2 LTG DSNT E-S RAB05 P0001 T02720244

More Conditions Fewer Conditions

Pressure 29.80 in
Visibility 4.0 miles
Clouds Few 2800 ft
Mostly Cloudy 4100 ft
Mostly Cloudy 5500 ft
Heat Index 82 °F
Dew Point 76 °F
Humidity 93%
Rainfall 0.05 in
Snow Depth Not available.
UV 4 out of 12
Pollen 6.40 out of 12
Air Quality Not available.
Flu Activity Not available.
SPECI KPOU 301914Z 29007KT 4SM VCTS -RA FEW028 BKN041 BKN055 27/24 A2980 RMK AO2 LTG DSNT E-S RAB05 P0001 T02720244

More Conditions Fewer Conditions

10-Day Weather Forecast

×

Almanac

Astronomy

Jul. 30, 2015 Rise Set
Actual Time
Civil Twilight
Nautical Twilight
Astronomical Twilight
Moon
Length of Visible Light
Length of Day
Tomorrow will be .
, % of the Moon is Illuminated

Today's Extremes

State Highs State Lows

Community

WunderPhotos

Upload Photos

1,842,486 photos uploaded!

WunderBlogs® & News

Nearby

Air Quality

  Air Quality AQ Index Pollutant
Not available.

Snow Depth

Station Depth Elevation

Earthquake Activity

City Distance Mag. Time & Date
Minimum magnitude displayed is 2.5.

Coastal Water Temperatures

Place Temperature

Stations

Nearby Weather Stations

Station Location Temp. Windchill Dew Point Humidity Wind Precip. Elev Updated Type